Hakuhomaru — JJ4011 — position and weather

sailwx.info

Track history (hours):
 
Tides and Currents Weather Stations Pressure Air Temp Water Temp Dewpoint Dewpoint Depression Visibility Wind Speed Wind Dir Waves Ship Positions

Hakuhomaru

Last reported at 2015-Mar-05 09:33 UTC. Time now 2015-Mar-05 10:26 UTC.
Position N 34°42' E 135°16'.

Length 38 m; draft 3.3 m.

Type: Tug. MMSI: 431401584.

Date/timePositionNaut miles runAvg speedWind from/ knotsBaromVisibWave heightAir tempDewpointWater temp
2015-Mar-05 09:33N 34°42' E 135°16'0 0.0
2015-Mar-05 08:33N 34°42' E 135°16'1 1.4
2015-Mar-05 07:33N 34°41' E 135°17'4 4.2
2015-Mar-05 06:33N 34°41' E 135°12'0 0.0
2015-Mar-05 05:33N 34°41' E 135°12'0 0.0
2015-Mar-05 04:33N 34°41' E 135°12'0 0.0
2015-Mar-05 03:33N 34°41' E 135°12'0 0.0
2015-Mar-05 02:33N 34°41' E 135°12'0 0.0
2015-Mar-05 01:33N 34°41' E 135°12'2 2.4
2015-Mar-05 00:33N 34°42' E 135°15'2 1.8
2015-Mar-04 23:32N 34°41' E 135°13'2 2.1
2015-Mar-04 22:33N 34°41' E 135°15'1 0.7
2015-Mar-04 21:33N 34°40' E 135°15'2 2.2
2015-Mar-04 20:33N 34°41' E 135°12'0 0.0
2015-Mar-04 13:34N 34°41' E 135°12'1 0.7
2015-Mar-04 12:33N 34°41' E 135°13'0 0.4
2015-Mar-04 11:33N 34°40' E 135°13'0 0.0
2015-Mar-04 10:33N 34°40' E 135°13'0 0.0
2015-Mar-04 09:33N 34°40' E 135°13'3 2.8
2015-Mar-04 08:33N 34°42' E 135°16'4 4.0
2015-Mar-04 07:33N 34°41' E 135°11'1 0.8
2015-Mar-04 06:33N 34°41' E 135°12'1 0.7
2015-Mar-04 05:33N 34°41' E 135°11'0 0.5
2015-Mar-04 04:33N 34°40' E 135°12'0 0.4
2015-Mar-04 03:33N 34°41' E 135°12'0 0.0
2015-Mar-04 02:33N 34°41' E 135°12'0 0.0
2015-Mar-04 01:33N 34°41' E 135°12'0 0.0
2015-Mar-04 00:33N 34°41' E 135°12'1 1.4
2015-Mar-03 23:33N 34°41' E 135°14'3 2.7
2015-Mar-03 22:32N 34°39' E 135°16'2 2.2
2015-Mar-03 21:33N 34°40' E 135°15'  
2015-Mar-01 05:33N 34°41' E 135°12'0 0.0
2015-Mar-01 04:33N 34°41' E 135°12'0 0.0
2015-Mar-01 03:33N 34°41' E 135°12'0 0.0
2015-Mar-01 02:33N 34°41' E 135°12'0 0.0
2015-Mar-01 01:33N 34°41' E 135°12'1 0.8
2015-Mar-01 00:33N 34°41' E 135°13'1 1.4
2015-Feb-28 23:33N 34°40' E 135°14'2 1.7
2015-Feb-28 22:33N 34°41' E 135°12'1 0.1
2015-Feb-28 09:33N 34°41' E 135°13'3 3.0
2015-Feb-28 08:32N 34°39' E 135°16'4 3.8
2015-Feb-28 07:33N 34°41' E 135°12'0 0.0
2015-Feb-28 06:33N 34°41' E 135°12'0 0.4
2015-Feb-28 05:33N 34°41' E 135°12'3 2.6
2015-Feb-28 04:33N 34°40' E 135°15'3 2.7
2015-Feb-28 03:33N 34°41' E 135°12'0 0.0
2015-Feb-28 02:33N 34°41' E 135°12'0 0.0
2015-Feb-28 01:33N 34°41' E 135°12'2 2.3
2015-Feb-28 00:33N 34°42' E 135°15'3 2.6
2015-Feb-27 23:33N 34°41' E 135°17'1 1.3
2015-Feb-27 22:33N 34°42' E 135°17'1 0.8
2015-Feb-27 21:33N 34°42' E 135°18'5 4.9
2015-Feb-27 20:33N 34°41' E 135°12'0 0.0
2015-Feb-27 06:33N 34°41' E 135°12'0 0.0
2015-Feb-27 05:33N 34°41' E 135°12'0 0.0
2015-Feb-27 04:33N 34°41' E 135°12'0 0.0
2015-Feb-27 03:33N 34°41' E 135°12'0 0.0
2015-Feb-27 02:33N 34°41' E 135°12'1 1.5
2015-Feb-27 01:33N 34°39' E 135°11'1 1.5
2015-Feb-27 00:34N 34°41' E 135°12'0 0.5
2015-Feb-26 23:34N 34°41' E 135°13'2 1.8
2015-Feb-26 22:33N 34°41' E 135°15'1 1.0
2015-Feb-26 21:33N 34°40' E 135°15'2 2.1
2015-Feb-26 20:33N 34°41' E 135°12'2 0.0
2015-Feb-24 23:33N 34°41' E 135°14'1 0.9
2015-Feb-24 22:34N 34°41' E 135°15'1 1.5
2015-Feb-24 21:34N 34°39' E 135°15'0 0.0
2015-Feb-24 20:34N 34°39' E 135°15'0 0.0
2015-Feb-24 19:34N 34°39' E 135°15'0 0.0
2015-Feb-24 18:34N 34°39' E 135°15'0 0.0
2015-Feb-24 17:34N 34°39' E 135°15'2 1.6
2015-Feb-24 16:34N 34°41' E 135°16'3 2.7
2015-Feb-24 15:34N 34°41' E 135°12'0 0.0
2015-Feb-24 14:34N 34°41' E 135°12'0 0.0
2015-Feb-24 13:33N 34°41' E 135°12'0 0.0
2015-Feb-24 12:34N 34°41' E 135°12'0 0.0
2015-Feb-24 11:34N 34°41' E 135°12'0 0.0
2015-Feb-24 10:33N 34°41' E 135°12'2 2.5
2015-Feb-24 09:33N 34°41' E 135°15'2 2.0
2015-Feb-24 08:34N 34°41' E 135°13'0 0.0
2015-Feb-24 07:34N 34°41' E 135°13'0 0.0
2015-Feb-24 06:33N 34°41' E 135°13'3 3.3
2015-Feb-24 05:33N 34°41' E 135°17'3 3.3
2015-Feb-24 04:33N 34°41' E 135°13'1 0.7
2015-Feb-24 03:33N 34°41' E 135°12'0 0.0
2015-Feb-24 02:33N 34°41' E 135°12'0 0.0
2015-Feb-24 01:33N 34°41' E 135°12'3 3.2
2015-Feb-24 00:33N 34°42' E 135°16'1 0.6
2015-Feb-23 23:33N 34°42' E 135°15'1 0.5
2015-Feb-23 22:33N 34°41' E 135°15'2 2.4
2015-Feb-23 21:33N 34°41' E 135°12'  
Track history (hours):
 
Tides and Currents Weather Stations Pressure Air Temp Water Temp Dewpoint Dewpoint Depression Visibility Wind Speed Wind Dir Waves Ship Positions

Hakuhomaru

Last reported at 2015-Mar-05 09:33 UTC. Time now 2015-Mar-05 10:26 UTC.
Position N 34°42' E 135°16'.

Length 38 m; draft 3.3 m.

Type: Tug. MMSI: 431401584.

Date/timePositionNaut miles runAvg speedWind from/ knotsBaromVisibWave heightAir tempDewpointWater temp
2015-Mar-05 09:33N 34°42' E 135°16'0 0.0
2015-Mar-05 08:33N 34°42' E 135°16'1 1.4
2015-Mar-05 07:33N 34°41' E 135°17'4 4.2
2015-Mar-05 06:33N 34°41' E 135°12'0 0.0
2015-Mar-05 05:33N 34°41' E 135°12'0 0.0
2015-Mar-05 04:33N 34°41' E 135°12'0 0.0
2015-Mar-05 03:33N 34°41' E 135°12'0 0.0
2015-Mar-05 02:33N 34°41' E 135°12'0 0.0
2015-Mar-05 01:33N 34°41' E 135°12'2 2.4
2015-Mar-05 00:33N 34°42' E 135°15'2 1.8
2015-Mar-04 23:32N 34°41' E 135°13'2 2.1
2015-Mar-04 22:33N 34°41' E 135°15'1 0.7
2015-Mar-04 21:33N 34°40' E 135°15'2 2.2
2015-Mar-04 20:33N 34°41' E 135°12'0 0.0
2015-Mar-04 13:34N 34°41' E 135°12'1 0.7
2015-Mar-04 12:33N 34°41' E 135°13'0 0.4
2015-Mar-04 11:33N 34°40' E 135°13'0 0.0
2015-Mar-04 10:33N 34°40' E 135°13'0 0.0
2015-Mar-04 09:33N 34°40' E 135°13'3 2.8
2015-Mar-04 08:33N 34°42' E 135°16'4 4.0
2015-Mar-04 07:33N 34°41' E 135°11'1 0.8
2015-Mar-04 06:33N 34°41' E 135°12'1 0.7
2015-Mar-04 05:33N 34°41' E 135°11'0 0.5
2015-Mar-04 04:33N 34°40' E 135°12'0 0.4
2015-Mar-04 03:33N 34°41' E 135°12'0 0.0
2015-Mar-04 02:33N 34°41' E 135°12'0 0.0
2015-Mar-04 01:33N 34°41' E 135°12'0 0.0
2015-Mar-04 00:33N 34°41' E 135°12'1 1.4
2015-Mar-03 23:33N 34°41' E 135°14'3 2.7
2015-Mar-03 22:32N 34°39' E 135°16'2 2.2
2015-Mar-03 21:33N 34°40' E 135°15'  
2015-Mar-01 05:33N 34°41' E 135°12'0 0.0
2015-Mar-01 04:33N 34°41' E 135°12'0 0.0
2015-Mar-01 03:33N 34°41' E 135°12'0 0.0
2015-Mar-01 02:33N 34°41' E 135°12'0 0.0
2015-Mar-01 01:33N 34°41' E 135°12'1 0.8
2015-Mar-01 00:33N 34°41' E 135°13'1 1.4
2015-Feb-28 23:33N 34°40' E 135°14'2 1.7
2015-Feb-28 22:33N 34°41' E 135°12'1 0.1
2015-Feb-28 09:33N 34°41' E 135°13'3 3.0
2015-Feb-28 08:32N 34°39' E 135°16'4 3.8
2015-Feb-28 07:33N 34°41' E 135°12'0 0.0
2015-Feb-28 06:33N 34°41' E 135°12'0 0.4
2015-Feb-28 05:33N 34°41' E 135°12'3 2.6
2015-Feb-28 04:33N 34°40' E 135°15'3 2.7
2015-Feb-28 03:33N 34°41' E 135°12'0 0.0
2015-Feb-28 02:33N 34°41' E 135°12'0 0.0
2015-Feb-28 01:33N 34°41' E 135°12'2 2.3
2015-Feb-28 00:33N 34°42' E 135°15'3 2.6
2015-Feb-27 23:33N 34°41' E 135°17'1 1.3
2015-Feb-27 22:33N 34°42' E 135°17'1 0.8
2015-Feb-27 21:33N 34°42' E 135°18'5 4.9
2015-Feb-27 20:33N 34°41' E 135°12'0 0.0
2015-Feb-27 06:33N 34°41' E 135°12'0 0.0
2015-Feb-27 05:33N 34°41' E 135°12'0 0.0
2015-Feb-27 04:33N 34°41' E 135°12'0 0.0
2015-Feb-27 03:33N 34°41' E 135°12'0 0.0
2015-Feb-27 02:33N 34°41' E 135°12'1 1.5
2015-Feb-27 01:33N 34°39' E 135°11'1 1.5
2015-Feb-27 00:34N 34°41' E 135°12'0 0.5
2015-Feb-26 23:34N 34°41' E 135°13'2 1.8
2015-Feb-26 22:33N 34°41' E 135°15'1 1.0
2015-Feb-26 21:33N 34°40' E 135°15'2 2.1
2015-Feb-26 20:33N 34°41' E 135°12'2 0.0
2015-Feb-24 23:33N 34°41' E 135°14'1 0.9
2015-Feb-24 22:34N 34°41' E 135°15'1 1.5
2015-Feb-24 21:34N 34°39' E 135°15'0 0.0
2015-Feb-24 20:34N 34°39' E 135°15'0 0.0
2015-Feb-24 19:34N 34°39' E 135°15'0 0.0
2015-Feb-24 18:34N 34°39' E 135°15'0 0.0
2015-Feb-24 17:34N 34°39' E 135°15'2 1.6
2015-Feb-24 16:34N 34°41' E 135°16'3 2.7
2015-Feb-24 15:34N 34°41' E 135°12'0 0.0
2015-Feb-24 14:34N 34°41' E 135°12'0 0.0
2015-Feb-24 13:33N 34°41' E 135°12'0 0.0
2015-Feb-24 12:34N 34°41' E 135°12'0 0.0
2015-Feb-24 11:34N 34°41' E 135°12'0 0.0
2015-Feb-24 10:33N 34°41' E 135°12'2 2.5
2015-Feb-24 09:33N 34°41' E 135°15'2 2.0
2015-Feb-24 08:34N 34°41' E 135°13'0 0.0
2015-Feb-24 07:34N 34°41' E 135°13'0 0.0
2015-Feb-24 06:33N 34°41' E 135°13'3 3.3
2015-Feb-24 05:33N 34°41' E 135°17'3 3.3
2015-Feb-24 04:33N 34°41' E 135°13'1 0.7
2015-Feb-24 03:33N 34°41' E 135°12'0 0.0
2015-Feb-24 02:33N 34°41' E 135°12'0 0.0
2015-Feb-24 01:33N 34°41' E 135°12'3 3.2
2015-Feb-24 00:33N 34°42' E 135°16'1 0.6
2015-Feb-23 23:33N 34°42' E 135°15'1 0.5
2015-Feb-23 22:33N 34°41' E 135°15'2 2.4
2015-Feb-23 21:33N 34°41' E 135°12'  

Dump ship's entire track history